Time;durP1;ratioP1;P1;durP2;ratioP2;P2;SDS_P1;SDS_P2;PMS_P1;PMS_P2;Temp;Humidity;BMP_temperature;BMP_pressure;BME280_temperature;BME280_humidity;BME280_pressure;Samples;Min_cycle;Max_cycle;Signal;HPM_P1;HPM_P2
2021/11/13 00:04:20;;;;;;;11.00;4.82;;;4.40;97.00;;;;;;10084335;28;20039;-66
2021/11/13 00:09:14;;;;;;;14.13;5.07;;;4.30;97.00;;;;;;10095740;28;20052;-64
2021/11/13 00:14:05;;;;;;;13.75;6.00;;;4.30;97.40;;;;;;10092230;28;20036;-65
2021/11/13 00:18:55;;;;;;;10.32;5.32;;;4.30;97.20;;;;;;10089510;28;20021;-65
2021/11/13 00:23:46;;;;;;;17.00;7.50;;;4.30;97.30;;;;;;10073658;28;20489;-66
2021/11/13 00:28:37;;;;;;;12.45;4.70;;;4.30;97.20;;;;;;10094813;28;20026;-65
2021/11/13 00:33:27;;;;;;;15.20;5.10;;;4.30;97.50;;;;;;10090159;28;20040;-66
2021/11/13 00:38:20;;;;;;;12.63;5.65;;;4.40;97.30;;;;;;10091304;28;20025;-66
2021/11/13 00:43:11;;;;;;;14.63;6.25;;;4.40;97.20;;;;;;10091263;28;20160;-65
2021/11/13 00:48:02;;;;;;;14.10;5.30;;;4.50;97.10;;;;;;10086052;28;20565;-66
2021/11/13 00:52:53;;;;;;;14.65;6.97;;;4.60;97.10;;;;;;10090516;28;20109;-66
2021/11/13 00:57:44;;;;;;;11.02;4.53;;;4.50;97.20;;;;;;10090955;28;20207;-66
2021/11/13 01:02:35;;;;;;;10.50;5.22;;;4.50;97.30;;;;;;10088722;28;20108;-66
2021/11/13 01:07:26;;;;;;;10.52;5.22;;;4.60;97.60;;;;;;10090238;28;20167;-65
2021/11/13 01:12:17;;;;;;;17.60;6.68;;;4.70;97.20;;;;;;10090948;28;20033;-65
2021/11/13 01:17:11;;;;;;;16.15;6.47;;;4.70;97.10;;;;;;10089961;28;20442;-65
2021/11/13 01:22:02;;;;;;;15.10;6.95;;;4.80;97.20;;;;;;10088533;28;20024;-66
2021/11/13 01:26:52;;;;;;;17.98;8.93;;;4.90;97.20;;;;;;10095449;28;20040;-65
2021/11/13 01:31:43;;;;;;;18.20;8.00;;;5.00;97.10;;;;;;10090351;28;20296;-66
2021/11/13 01:36:34;;;;;;;15.98;6.20;;;4.90;97.30;;;;;;10088631;28;20075;-66
2021/11/13 01:41:26;;;;;;;16.77;8.07;;;4.90;97.40;;;;;;10089162;28;20033;-66
2021/11/13 01:46:18;;;;;;;12.63;6.25;;;5.00;97.10;;;;;;10093122;28;20066;-65
2021/11/13 01:51:25;;;;;;;16.77;7.32;;;5.00;97.20;;;;;;10089118;28;20025;-65
2021/11/13 01:56:19;;;;;;;12.57;6.40;;;5.10;97.20;;;;;;10088302;28;20358;-66
2021/11/13 02:01:10;;;;;;;15.52;6.07;;;5.10;97.10;;;;;;10078937;28;20105;-65
2021/11/13 02:06:01;;;;;;;16.17;6.72;;;5.00;97.10;;;;;;10087896;28;20045;-65
2021/11/13 02:10:51;;;;;;;12.57;6.07;;;5.00;97.20;;;;;;10094069;28;20025;-65
2021/11/13 02:15:42;;;;;;;16.80;6.97;;;5.00;97.30;;;;;;10097868;28;20261;-66
2021/11/13 02:20:39;;;;;;;12.35;7.15;;;5.10;97.20;;;;;;10097030;28;20082;-65
2021/11/13 02:25:32;;;;;;;14.90;7.15;;;5.10;97.20;;;;;;10095720;28;20069;-66
2021/11/13 02:30:23;;;;;;;12.93;7.50;;;5.10;97.30;;;;;;10094173;28;20047;-65
2021/11/13 02:35:16;;;;;;;16.25;7.07;;;5.10;97.40;;;;;;10096073;28;20067;-66
2021/11/13 02:40:08;;;;;;;16.83;7.03;;;5.10;97.30;;;;;;10078354;28;20078;-66
2021/11/13 02:44:59;;;;;;;17.60;7.70;;;5.10;97.50;;;;;;10094818;28;20041;-65
2021/11/13 02:49:50;;;;;;;15.13;6.80;;;5.10;97.30;;;;;;10095615;28;20037;-65
2021/11/13 02:54:46;;;;;;;20.35;7.53;;;5.10;97.40;;;;;;10095122;28;20140;-64
2021/11/13 02:59:43;;;;;;;16.05;7.85;;;5.20;97.40;;;;;;10078464;28;20502;-66
2021/11/13 03:04:34;;;;;;;17.00;7.82;;;5.20;97.40;;;;;;10093938;28;20058;-66
2021/11/13 03:09:25;;;;;;;21.50;7.88;;;5.20;97.40;;;;;;10099739;28;20430;-65
2021/11/13 03:14:15;;;;;;;18.95;7.28;;;5.20;97.50;;;;;;10077665;28;20025;-67
2021/11/13 03:19:06;;;;;;;15.35;6.95;;;5.20;97.40;;;;;;10093957;28;20025;-65
2021/11/13 03:23:57;;;;;;;16.55;7.13;;;5.20;97.40;;;;;;10094504;28;20108;-66
2021/11/13 03:28:53;;;;;;;15.65;6.38;;;5.10;97.60;;;;;;10094666;28;20029;-66
2021/11/13 03:33:44;;;;;;;15.13;7.22;;;5.30;97.40;;;;;;10092803;28;20509;-65
2021/11/13 03:38:37;;;;;;;15.85;6.80;;;5.30;97.40;;;;;;10094177;28;20375;-66
2021/11/13 03:43:28;;;;;;;13.38;5.53;;;5.10;97.40;;;;;;10094302;28;20063;-66
2021/11/13 03:48:19;;;;;;;12.75;6.63;;;5.10;97.60;;;;;;10092804;28;20033;-65
2021/11/13 03:53:10;;;;;;;17.38;7.47;;;5.20;97.60;;;;;;10093335;28;20115;-66
2021/11/13 03:58:01;;;;;;;15.98;6.75;;;5.20;97.50;;;;;;10091123;28;20059;-65
2021/11/13 04:02:52;;;;;;;17.13;6.03;;;5.20;97.60;;;;;;10087917;28;20081;-65
2021/11/13 04:07:43;;;;;;;13.32;6.55;;;5.20;97.50;;;;;;10090640;28;20083;-66
2021/11/13 04:12:35;;;;;;;11.00;6.32;;;5.20;97.60;;;;;;10093130;28;20067;-65
2021/11/13 04:17:26;;;;;;;15.15;6.55;;;5.10;97.60;;;;;;10093452;28;20041;-66
2021/11/13 04:22:17;;;;;;;16.98;6.75;;;5.10;97.60;;;;;;10092538;28;20347;-67
2021/11/13 04:27:07;;;;;;;16.45;6.85;;;5.20;97.60;;;;;;10095445;28;20137;-66
2021/11/13 04:31:58;;;;;;;15.25;7.20;;;5.20;97.60;;;;;;10090702;28;20104;-64
2021/11/13 04:36:53;;;;;;;14.70;7.88;;;5.20;97.60;;;;;;10092360;28;20361;-67
2021/11/13 04:41:44;;;;;;;10.68;5.93;;;5.20;97.60;;;;;;10092012;28;20028;-66
2021/11/13 04:46:35;;;;;;;15.43;7.15;;;5.20;97.60;;;;;;10093587;28;20089;-66
2021/11/13 04:51:25;;;;;;;17.10;7.10;;;5.20;97.60;;;;;;10097064;28;20021;-65
2021/11/13 04:56:16;;;;;;;11.13;7.15;;;5.20;97.70;;;;;;10090290;28;20086;-64
2021/11/13 05:01:07;;;;;;;21.75;7.20;;;5.20;97.60;;;;;;10091026;28;20135;-65
2021/11/13 05:05:58;;;;;;;14.70;7.13;;;5.30;97.60;;;;;;10092350;28;20594;-66
2021/11/13 05:10:50;;;;;;;17.13;8.30;;;5.30;97.60;;;;;;10091565;28;20105;-66
2021/11/13 05:15:40;;;;;;;14.52;7.25;;;5.30;97.60;;;;;;10091172;28;20755;-65
2021/11/13 05:20:31;;;;;;;14.07;6.97;;;5.30;97.70;;;;;;10090254;28;20032;-65
2021/11/13 05:25:23;;;;;;;14.73;7.13;;;5.40;97.60;;;;;;10088652;28;20464;-65
2021/11/13 05:30:15;;;;;;;14.80;6.90;;;5.40;97.60;;;;;;10087440;28;20021;-65
2021/11/13 05:35:07;;;;;;;18.02;6.95;;;5.30;97.70;;;;;;10089648;28;20075;-67
2021/11/13 05:39:58;;;;;;;13.50;6.60;;;5.30;97.50;;;;;;10071309;28;20137;-66
2021/11/13 05:44:49;;;;;;;16.75;7.03;;;5.30;97.40;;;;;;10087956;28;20522;-67
2021/11/13 05:49:41;;;;;;;15.20;7.53;;;5.30;97.30;;;;;;10088260;28;20028;-66
2021/11/13 05:54:31;;;;;;;17.80;8.18;;;5.30;97.30;;;;;;10088152;28;20087;-66
2021/11/13 05:59:22;;;;;;;14.48;8.05;;;5.20;97.40;;;;;;10089417;28;20383;-66
2021/11/13 06:04:13;;;;;;;14.85;6.32;;;5.20;97.30;;;;;;10089298;28;20116;-66
2021/11/13 06:09:05;;;;;;;16.95;7.57;;;5.30;97.40;;;;;;10088239;28;20479;-65
2021/11/13 06:13:56;;;;;;;14.80;6.63;;;5.30;97.30;;;;;;10089554;28;20120;-64
2021/11/13 06:18:47;;;;;;;17.92;7.15;;;5.30;97.40;;;;;;10088158;28;20656;-66
2021/11/13 06:23:39;;;;;;;12.43;5.88;;;5.30;97.50;;;;;;10088154;28;20032;-66
2021/11/13 06:28:30;;;;;;;12.82;7.03;;;5.30;97.50;;;;;;10089382;28;20032;-66
2021/11/13 06:33:21;;;;;;;13.95;6.43;;;5.30;97.60;;;;;;10091695;28;20036;-65
2021/11/13 06:38:12;;;;;;;17.13;6.57;;;5.30;97.60;;;;;;10088203;28;20230;-65
2021/11/13 06:43:03;;;;;;;12.70;6.22;;;5.40;97.50;;;;;;10088358;28;20411;-65
2021/11/13 06:47:53;;;;;;;13.13;6.15;;;5.40;97.50;;;;;;10088492;28;20021;-65
2021/11/13 06:52:44;;;;;;;12.32;6.38;;;5.40;97.60;;;;;;10088404;28;20080;-65
2021/11/13 06:57:35;;;;;;;18.23;7.38;;;5.40;97.50;;;;;;10089853;28;20550;-65
2021/11/13 07:02:26;;;;;;;12.80;6.50;;;5.40;97.60;;;;;;10094511;28;20048;-65
2021/11/13 07:07:16;;;;;;;13.50;6.60;;;5.30;97.50;;;;;;10095404;28;20040;-65
2021/11/13 07:12:07;;;;;;;16.25;6.78;;;5.30;97.60;;;;;;10094485;28;20021;-65
2021/11/13 07:16:58;;;;;;;12.20;6.13;;;5.40;97.60;;;;;;10094072;28;20029;-66
2021/11/13 07:21:49;;;;;;;11.35;6.70;;;5.50;97.50;;;;;;10093125;28;20047;-64
2021/11/13 07:26:39;;;;;;;8.50;4.97;;;5.60;97.20;;;;;;10093434;28;20024;-64
2021/11/13 07:31:30;;;;;;;13.52;5.68;;;5.70;97.30;;;;;;10093626;28;20021;-65
2021/11/13 07:36:21;;;;;;;9.30;4.70;;;5.80;97.20;;;;;;10098856;28;20546;-66
2021/11/13 07:41:12;;;;;;;10.07;4.85;;;5.90;97.20;;;;;;10092624;28;20302;-66
2021/11/13 07:46:03;;;;;;;9.20;5.53;;;6.10;97.00;;;;;;10093838;28;20631;-66
2021/11/13 07:50:54;;;;;;;13.35;6.40;;;6.10;97.00;;;;;;10093479;28;20024;-67
2021/11/13 07:55:45;;;;;;;11.43;5.95;;;6.20;96.90;;;;;;10093624;28;20080;-65
2021/11/13 08:00:36;;;;;;;14.70;6.38;;;6.20;96.80;;;;;;10092816;28;20036;-65
2021/11/13 08:05:27;;;;;;;11.45;5.57;;;6.30;96.90;;;;;;10093656;28;20029;-66
2021/11/13 08:10:18;;;;;;;11.60;5.43;;;6.30;96.90;;;;;;10088216;28;20036;-65
2021/11/13 08:15:11;;;;;;;11.18;5.95;;;6.40;96.90;;;;;;10091943;28;20047;-66
2021/11/13 08:20:02;;;;;;;8.88;4.65;;;6.50;96.80;;;;;;10091678;28;20096;-67
2021/11/13 08:24:53;;;;;;;7.70;4.55;;;6.50;96.80;;;;;;10092505;28;20051;-66
2021/11/13 08:29:44;;;;;;;8.57;5.18;;;6.50;96.70;;;;;;10091691;28;20364;-65
2021/11/13 08:34:35;;;;;;;9.32;4.95;;;6.50;96.80;;;;;;10095811;28;20025;-66
2021/11/13 08:39:29;;;;;;;9.00;4.65;;;6.50;96.70;;;;;;10091125;28;20024;-66
2021/11/13 08:44:20;;;;;;;10.20;4.80;;;6.60;96.70;;;;;;10073715;28;20577;-67
2021/11/13 08:49:10;;;;;;;6.90;4.75;;;6.60;96.70;;;;;;10072275;28;20016;-68
2021/11/13 08:54:02;;;;;;;8.05;5.35;;;6.60;96.50;;;;;;10090635;28;20044;-67
2021/11/13 08:58:54;;;;;;;12.52;5.38;;;6.60;96.60;;;;;;10090850;28;20029;-68
2021/11/13 09:03:46;;;;;;;9.55;5.50;;;6.60;96.40;;;;;;10092483;28;20370;-67
2021/11/13 09:08:40;;;;;;;14.10;6.07;;;6.60;96.50;;;;;;10070863;28;20596;-67
2021/11/13 09:13:31;;;;;;;9.82;5.00;;;6.60;96.50;;;;;;10096489;28;20391;-66
2021/11/13 09:18:22;;;;;;;10.80;5.50;;;6.60;96.40;;;;;;10090430;28;20067;-66
2021/11/13 09:23:13;;;;;;;9.13;5.53;;;6.70;96.30;;;;;;10089715;28;20087;-66
2021/11/13 09:28:04;;;;;;;9.25;5.28;;;6.80;96.30;;;;;;10089915;28;20025;-67
2021/11/13 09:32:55;;;;;;;12.48;6.53;;;6.80;96.30;;;;;;10094388;28;20465;-65
2021/11/13 09:37:46;;;;;;;10.98;6.82;;;6.90;96.30;;;;;;10092795;28;20031;-68
2021/11/13 09:42:37;;;;;;;14.00;7.20;;;6.90;96.30;;;;;;10090016;28;20013;-66
2021/11/13 09:47:28;;;;;;;10.88;5.72;;;7.00;96.30;;;;;;10092341;28;20419;-65
2021/11/13 09:52:19;;;;;;;11.10;6.30;;;6.90;96.30;;;;;;10091099;28;20041;-67
2021/11/13 09:57:10;;;;;;;11.40;5.55;;;7.00;96.40;;;;;;10089197;28;20053;-66
2021/11/13 10:02:01;;;;;;;11.65;5.55;;;7.20;96.30;;;;;;10071679;28;20029;-67
2021/11/13 10:06:51;;;;;;;11.65;5.60;;;7.20;96.20;;;;;;10068571;28;20091;-66
2021/11/13 10:11:48;;;;;;;9.98;5.60;;;7.20;96.30;;;;;;10086619;28;20056;-66
2021/11/13 10:16:46;;;;;;;9.60;4.72;;;7.30;96.40;;;;;;10087822;28;20424;-66
2021/11/13 10:21:39;;;;;;;6.75;5.50;;;7.50;96.30;;;;;;10088627;28;20506;-68
2021/11/13 10:26:30;;;;;;;9.55;5.68;;;7.70;96.20;;;;;;10087314;28;20040;-66
2021/11/13 10:31:22;;;;;;;12.55;5.55;;;7.70;96.20;;;;;;10087602;28;20375;-66
2021/11/13 10:36:20;;;;;;;9.63;5.75;;;7.80;96.30;;;;;;10097556;28;20143;-66
2021/11/13 10:41:12;;;;;;;8.90;5.10;;;7.80;96.30;;;;;;10094703;28;20169;-66
2021/11/13 10:46:12;;;;;;;10.55;5.65;;;7.90;96.30;;;;;;10079526;28;20203;-69
2021/11/13 10:51:18;;;;;;;11.13;5.70;;;8.10;96.30;;;;;;10095359;28;20528;-67
2021/11/13 10:56:22;;;;;;;9.23;5.72;;;8.30;96.30;;;;;;10088419;28;20514;-66
2021/11/13 11:01:38;;;;;;;11.93;7.22;;;8.30;96.30;;;;;;10093745;28;20036;-66
2021/11/13 11:06:36;;;;;;;10.10;6.57;;;8.30;96.30;;;;;;10088572;28;20055;-66
2021/11/13 11:11:34;;;;;;;9.48;6.05;;;8.40;96.30;;;;;;10093961;28;20048;-65
2021/11/13 11:16:33;;;;;;;11.32;6.15;;;8.40;96.30;;;;;;10076186;28;20056;-66
2021/11/13 11:21:40;;;;;;;10.68;6.55;;;8.70;96.30;;;;;;10069098;28;20053;-67
2021/11/13 11:26:31;;;;;;;10.38;5.85;;;9.00;96.30;;;;;;10095170;28;20518;-66
2021/11/13 11:31:50;;;;;;;11.48;5.68;;;8.90;96.20;;;;;;10093027;28;20029;-66
2021/11/13 11:36:41;;;;;;;11.48;6.95;;;8.70;96.30;;;;;;10094273;28;20111;-67
2021/11/13 11:41:32;;;;;;;10.23;6.20;;;8.60;96.40;;;;;;10093013;28;20509;-66
2021/11/13 11:46:22;;;;;;;12.77;7.10;;;8.50;96.40;;;;;;10093432;28;20031;-67
2021/11/13 11:51:15;;;;;;;11.85;7.20;;;8.40;96.40;;;;;;10093919;28;20048;-66
2021/11/13 11:56:06;;;;;;;11.30;6.55;;;8.50;96.30;;;;;;10093503;28;20059;-66
2021/11/13 12:00:59;;;;;;;14.02;6.47;;;8.70;96.30;;;;;;10092084;28;20310;-65
2021/11/13 12:05:53;;;;;;;10.90;6.93;;;8.90;96.20;;;;;;10093087;28;20102;-67
2021/11/13 12:10:45;;;;;;;13.35;7.45;;;9.00;96.30;;;;;;10093393;28;20598;-65
2021/11/13 12:15:43;;;;;;;13.20;6.90;;;9.00;96.20;;;;;;10098127;28;20032;-67
2021/11/13 12:20:34;;;;;;;11.77;7.53;;;9.00;96.20;;;;;;10092276;28;20033;-65
2021/11/13 12:25:31;;;;;;;13.18;6.57;;;9.00;96.30;;;;;;10084884;28;20037;-65
2021/11/13 12:30:49;;;;;;;13.90;6.45;;;9.00;96.20;;;;;;10092553;28;20029;-66
2021/11/13 12:35:59;;;;;;;10.55;5.90;;;9.00;96.20;;;;;;10094903;28;20021;-67
2021/11/13 12:40:49;;;;;;;13.85;6.45;;;9.10;96.10;;;;;;10091439;28;20036;-66
2021/11/13 12:45:43;;;;;;;6.90;5.80;;;9.10;96.20;;;;;;10089883;28;20044;-66
2021/11/13 12:50:35;;;;;;;13.13;6.88;;;9.20;96.10;;;;;;10090934;28;20112;-68
2021/11/13 12:55:36;;;;;;;12.27;6.95;;;9.30;96.10;;;;;;10084645;28;20045;-65
2021/11/13 13:00:32;;;;;;;10.27;6.65;;;9.40;96.10;;;;;;10083628;28;20194;-67
2021/11/13 13:05:23;;;;;;;12.48;6.20;;;9.50;96.10;;;;;;10090508;28;20055;-64
2021/11/13 13:10:14;;;;;;;10.60;7.05;;;9.60;96.20;;;;;;10091901;28;20491;-64
2021/11/13 13:15:17;;;;;;;12.15;6.93;;;9.70;96.10;;;;;;10090908;28;20033;-67
2021/11/13 13:20:12;;;;;;;10.75;5.45;;;9.80;96.10;;;;;;10083218;28;20028;-67
2021/11/13 13:25:09;;;;;;;9.48;5.40;;;9.80;96.10;;;;;;10071708;28;20052;-67
2021/11/13 13:30:05;;;;;;;10.73;5.95;;;9.80;96.20;;;;;;10091433;28;20064;-65
2021/11/13 13:35:05;;;;;;;8.05;4.95;;;9.80;96.20;;;;;;10094004;28;20454;-66
2021/11/13 13:39:58;;;;;;;12.27;5.75;;;9.80;96.30;;;;;;10090940;28;20056;-66
2021/11/13 13:44:55;;;;;;;9.13;5.60;;;9.70;96.30;;;;;;10092350;28;20044;-68
2021/11/13 13:49:53;;;;;;;8.82;4.28;;;9.80;96.30;;;;;;10089331;28;20256;-67
2021/11/13 13:54:46;;;;;;;8.65;4.55;;;9.80;96.60;;;;;;10089475;28;20483;-67
2021/11/13 13:59:40;;;;;;;7.20;4.10;;;9.90;96.30;;;;;;10090127;28;20065;-67
2021/11/13 14:04:41;;;;;;;8.30;4.88;;;9.90;96.30;;;;;;10083992;28;20064;-67
2021/11/13 14:09:31;;;;;;;9.65;5.03;;;9.90;96.30;;;;;;10097821;28;20013;-69
2021/11/13 14:14:28;;;;;;;8.73;5.80;;;9.90;96.40;;;;;;10106170;28;20045;-68
2021/11/13 14:19:19;;;;;;;12.90;6.20;;;9.80;96.40;;;;;;10105412;28;20055;-67
2021/11/13 14:24:22;;;;;;;10.60;6.13;;;9.80;96.50;;;;;;10105524;28;20091;-67
2021/11/13 14:29:13;;;;;;;11.75;7.25;;;9.80;96.60;;;;;;10098151;28;20064;-67
2021/11/13 14:34:12;;;;;;;13.77;6.10;;;9.70;96.60;;;;;;10104703;28;20037;-66
2021/11/13 14:39:18;;;;;;;10.27;6.07;;;9.80;96.60;;;;;;10080119;28;20580;-67
2021/11/13 14:44:13;;;;;;;11.32;6.50;;;9.80;96.60;;;;;;10096812;28;20033;-66
2021/11/13 14:49:03;;;;;;;12.50;6.93;;;9.80;96.70;;;;;;10096797;28;20025;-67
2021/11/13 14:53:54;;;;;;;10.75;6.15;;;9.70;97.00;;;;;;10092915;28;20056;-68
2021/11/13 14:59:02;;;;;;;10.60;7.10;;;9.70;96.70;;;;;;10097105;28;20017;-67
2021/11/13 15:03:53;;;;;;;11.05;6.35;;;9.80;96.70;;;;;;10095104;28;20499;-66
2021/11/13 15:08:50;;;;;;;13.20;6.95;;;9.80;96.70;;;;;;10093950;28;20029;-66
2021/11/13 15:13:47;;;;;;;10.52;5.85;;;9.80;96.80;;;;;;10097519;28;20033;-68
2021/11/13 15:18:38;;;;;;;12.13;5.60;;;9.80;96.80;;;;;;10084543;28;20041;-68
2021/11/13 15:23:29;;;;;;;10.77;6.60;;;9.80;96.80;;;;;;10090886;28;20029;-66
2021/11/13 15:28:20;;;;;;;8.25;5.97;;;9.70;96.90;;;;;;10102405;28;20045;-66
2021/11/13 15:33:19;;;;;;;12.07;6.00;;;9.70;96.90;;;;;;10090521;28;20100;-66
2021/11/13 15:38:18;;;;;;;13.50;5.97;;;9.70;97.00;;;;;;10092973;28;20037;-66
2021/11/13 15:43:09;;;;;;;10.40;5.30;;;9.70;96.90;;;;;;10092369;28;20071;-67
2021/11/13 15:48:03;;;;;;;11.27;6.68;;;9.70;97.00;;;;;;10074547;28;20029;-66
2021/11/13 15:52:54;;;;;;;11.95;6.15;;;9.70;97.00;;;;;;10092224;28;20059;-66
2021/11/13 15:57:46;;;;;;;9.10;4.63;;;9.70;97.10;;;;;;10086412;28;20060;-66
2021/11/13 16:02:37;;;;;;;8.98;4.32;;;9.70;97.10;;;;;;10093446;28;20025;-66
2021/11/13 16:07:28;;;;;;;15.25;5.20;;;9.70;97.10;;;;;;10091232;28;20033;-66
2021/11/13 16:12:20;;;;;;;10.52;4.88;;;9.70;97.10;;;;;;10074000;28;20021;-66
2021/11/13 16:17:11;;;;;;;10.23;5.57;;;9.70;97.20;;;;;;10090508;28;20109;-67
2021/11/13 16:22:02;;;;;;;9.32;5.15;;;9.70;97.20;;;;;;10074066;28;20533;-67
2021/11/13 16:26:52;;;;;;;9.98;4.93;;;9.70;97.20;;;;;;10093721;28;20284;-66
2021/11/13 16:31:44;;;;;;;8.20;4.88;;;9.70;97.30;;;;;;10089445;28;20020;-66
2021/11/13 16:36:35;;;;;;;10.75;5.30;;;9.60;97.30;;;;;;10091136;28;20033;-66
2021/11/13 16:41:27;;;;;;;9.82;5.55;;;9.60;97.30;;;;;;10092169;28;20028;-66
2021/11/13 16:46:19;;;;;;;8.57;4.97;;;9.60;97.30;;;;;;10091568;28;20047;-66
2021/11/13 16:51:14;;;;;;;8.18;4.13;;;9.60;97.30;;;;;;10091500;28;20477;-67
2021/11/13 16:56:12;;;;;;;9.43;5.82;;;9.70;97.40;;;;;;10090940;28;20040;-66
2021/11/13 17:01:05;;;;;;;9.70;4.93;;;9.70;97.40;;;;;;10091364;28;20073;-68
2021/11/13 17:05:57;;;;;;;10.32;5.22;;;9.70;97.50;;;;;;10088503;28;20494;-68
2021/11/13 17:10:48;;;;;;;7.47;4.97;;;9.70;97.50;;;;;;10090304;28;20021;-68
2021/11/13 17:15:40;;;;;;;8.32;5.07;;;9.70;97.50;;;;;;10090650;28;20454;-65
2021/11/13 17:20:33;;;;;;;9.30;4.57;;;9.70;97.60;;;;;;10089375;28;20498;-66
2021/11/13 17:25:24;;;;;;;8.90;4.40;;;9.70;97.60;;;;;;10089169;28;20033;-65
2021/11/13 17:30:19;;;;;;;7.38;4.45;;;9.70;97.60;;;;;;10094029;28;20454;-66
2021/11/13 17:35:12;;;;;;;8.90;4.65;;;9.70;97.70;;;;;;10089275;28;20351;-66
2021/11/13 17:40:08;;;;;;;10.27;4.90;;;9.70;97.70;;;;;;10089167;28;20130;-68
2021/11/13 17:45:00;;;;;;;9.18;5.45;;;9.70;97.70;;;;;;10088944;28;20040;-67
2021/11/13 17:49:50;;;;;;;13.70;5.78;;;9.70;97.70;;;;;;10089528;28;20081;-67
2021/11/13 17:54:46;;;;;;;9.25;5.80;;;9.70;97.70;;;;;;10071059;28;20048;-66
2021/11/13 17:59:37;;;;;;;8.35;4.95;;;9.70;97.80;;;;;;10088306;28;20079;-67
2021/11/13 18:04:27;;;;;;;5.65;4.38;;;9.70;97.80;;;;;;10087926;28;20116;-67
2021/11/13 18:09:18;;;;;;;10.40;4.72;;;9.70;97.80;;;;;;10076369;28;20024;-66
2021/11/13 18:14:10;;;;;;;12.38;5.05;;;9.70;97.80;;;;;;10091435;28;20013;-67
2021/11/13 18:19:03;;;;;;;9.85;4.10;;;9.70;97.80;;;;;;10094576;28;20018;-66
2021/11/13 18:23:54;;;;;;;7.00;4.60;;;9.70;97.90;;;;;;10096859;28;20113;-68
2021/11/13 18:28:45;;;;;;;9.95;4.55;;;9.70;97.90;;;;;;10096092;28;20479;-67
2021/11/13 18:33:36;;;;;;;10.50;5.05;;;9.70;97.90;;;;;;10095153;28;20047;-67
2021/11/13 18:38:27;;;;;;;8.73;4.47;;;9.70;97.90;;;;;;10077034;28;20025;-67
2021/11/13 18:43:19;;;;;;;7.30;3.72;;;9.70;97.90;;;;;;10090028;28;20025;-65
2021/11/13 18:48:10;;;;;;;9.45;4.95;;;9.70;97.90;;;;;;10091535;28;20028;-66
2021/11/13 18:53:00;;;;;;;8.60;4.90;;;9.70;97.90;;;;;;10082006;28;20525;-65
2021/11/13 18:57:51;;;;;;;10.35;4.93;;;9.70;97.90;;;;;;10094819;28;20033;-65
2021/11/13 19:02:42;;;;;;;11.50;5.18;;;9.70;97.90;;;;;;10079327;28;20029;-67
2021/11/13 19:07:32;;;;;;;8.50;4.90;;;9.60;98.00;;;;;;10094077;28;20032;-66
2021/11/13 19:12:24;;;;;;;7.05;4.88;;;9.70;98.10;;;;;;10097326;28;20013;-66
2021/11/13 19:17:15;;;;;;;7.40;4.47;;;9.60;98.00;;;;;;10077126;28;20028;-67
2021/11/13 19:22:08;;;;;;;14.35;6.50;;;9.60;98.10;;;;;;10094090;28;20059;-68
2021/11/13 19:27:00;;;;;;;10.35;5.18;;;9.60;98.20;;;;;;10100600;28;20097;-66
2021/11/13 19:31:50;;;;;;;10.20;5.55;;;9.60;98.10;;;;;;10086464;28;20029;-65
2021/11/13 19:36:41;;;;;;;12.23;6.68;;;9.50;98.20;;;;;;10089212;28;20044;-66
2021/11/13 19:41:32;;;;;;;9.57;5.13;;;9.60;98.20;;;;;;10093942;28;20064;-67
2021/11/13 19:46:27;;;;;;;9.65;5.82;;;9.50;98.20;;;;;;10093813;28;20045;-65
2021/11/13 19:51:20;;;;;;;9.83;5.63;;;9.50;98.20;;;;;;10090773;28;20025;-67
2021/11/13 19:56:10;;;;;;;10.30;5.57;;;9.50;98.30;;;;;;10092179;28;20052;-66
2021/11/13 20:01:06;;;;;;;7.43;4.30;;;9.50;98.40;;;;;;10092920;28;20037;-67
2021/11/13 20:05:57;;;;;;;7.68;4.82;;;9.50;98.30;;;;;;10092868;28;20110;-66
2021/11/13 20:10:47;;;;;;;8.23;4.68;;;9.50;98.30;;;;;;10087888;28;20028;-66
2021/11/13 20:15:39;;;;;;;7.10;4.93;;;9.50;98.30;;;;;;10064451;28;20025;-66
2021/11/13 20:20:29;;;;;;;8.88;4.53;;;9.60;98.30;;;;;;10098878;28;20390;-65
2021/11/13 20:25:20;;;;;;;8.88;6.32;;;9.50;98.40;;;;;;10091370;28;20037;-68
2021/11/13 20:30:13;;;;;;;11.15;4.78;;;9.60;98.40;;;;;;10089394;28;20099;-65
2021/11/13 20:35:07;;;;;;;7.78;4.85;;;9.60;98.40;;;;;;10090899;28;20064;-66
2021/11/13 20:40:04;;;;;;;8.02;4.53;;;9.60;98.40;;;;;;10091871;28;20033;-67
2021/11/13 20:44:56;;;;;;;9.90;5.30;;;9.60;98.40;;;;;;10084861;28;20052;-66
2021/11/13 20:49:47;;;;;;;7.35;5.45;;;9.60;98.40;;;;;;10091174;28;20035;-68
2021/11/13 20:54:40;;;;;;;9.15;5.13;;;9.60;98.50;;;;;;10083221;28;20340;-67
2021/11/13 20:59:31;;;;;;;9.20;5.72;;;9.60;98.40;;;;;;10086074;28;20076;-67
2021/11/13 21:04:23;;;;;;;10.52;6.20;;;9.60;98.50;;;;;;10090627;28;20573;-66
2021/11/13 21:09:15;;;;;;;7.57;4.82;;;9.60;98.50;;;;;;10091612;28;20070;-68
2021/11/13 21:14:05;;;;;;;8.15;4.65;;;9.70;98.50;;;;;;10088936;28;20029;-67
2021/11/13 21:18:57;;;;;;;8.25;4.82;;;9.60;98.60;;;;;;10088733;28;20032;-66
2021/11/13 21:23:47;;;;;;;8.50;5.30;;;9.60;98.50;;;;;;10089671;28;20691;-67
2021/11/13 21:28:38;;;;;;;7.22;4.78;;;9.70;98.50;;;;;;10085730;28;20037;-69
2021/11/13 21:33:30;;;;;;;9.68;5.30;;;9.60;98.60;;;;;;10090298;28;20036;-70
2021/11/13 21:38:21;;;;;;;10.02;5.60;;;9.60;98.80;;;;;;10089104;28;20475;-68
2021/11/13 21:43:13;;;;;;;8.32;4.88;;;9.70;98.70;;;;;;10070760;28;20035;-66
2021/11/13 21:48:04;;;;;;;9.10;4.95;;;9.70;98.70;;;;;;10090219;28;20033;-66
2021/11/13 21:52:54;;;;;;;7.65;5.20;;;9.70;98.70;;;;;;10088820;28;20100;-67
2021/11/13 21:57:45;;;;;;;9.48;5.57;;;9.70;98.80;;;;;;10089076;28;20060;-67
2021/11/13 22:02:36;;;;;;;10.43;6.40;;;9.70;98.70;;;;;;10090763;28;20029;-68
2021/11/13 22:07:27;;;;;;;8.70;4.97;;;9.80;98.70;;;;;;10088358;28;20108;-67
2021/11/13 22:12:17;;;;;;;10.60;6.57;;;9.80;98.70;;;;;;10099277;28;20025;-67
2021/11/13 22:17:09;;;;;;;9.38;5.57;;;9.70;98.80;;;;;;10088874;28;20029;-67
2021/11/13 22:22:00;;;;;;;13.55;6.47;;;9.70;98.80;;;;;;10089253;28;20042;-68
2021/11/13 22:26:51;;;;;;;8.43;4.88;;;9.70;98.80;;;;;;10089335;28;21508;-68
2021/11/13 22:31:41;;;;;;;9.32;4.82;;;9.80;98.90;;;;;;10096166;28;20032;-67
2021/11/13 22:36:32;;;;;;;11.07;5.82;;;9.80;98.90;;;;;;10097500;28;20029;-65
2021/11/13 22:41:23;;;;;;;7.80;5.47;;;9.80;98.90;;;;;;10095186;28;20039;-66
2021/11/13 22:46:14;;;;;;;11.48;6.55;;;9.80;98.90;;;;;;10094494;28;20195;-67
2021/11/13 22:51:06;;;;;;;9.38;6.22;;;9.80;99.00;;;;;;10095507;28;20423;-69
2021/11/13 22:55:56;;;;;;;9.13;5.70;;;9.80;99.00;;;;;;10095418;28;20057;-67
2021/11/13 23:00:47;;;;;;;11.98;6.22;;;9.80;99.00;;;;;;10094274;28;20017;-68
2021/11/13 23:05:38;;;;;;;14.32;6.65;;;9.80;99.00;;;;;;10077313;28;20063;-67
2021/11/13 23:10:29;;;;;;;12.20;5.30;;;9.90;99.00;;;;;;10095326;28;20013;-68
2021/11/13 23:15:20;;;;;;;10.02;5.80;;;9.90;99.00;;;;;;10094835;28;20029;-67
2021/11/13 23:20:11;;;;;;;8.95;5.68;;;9.90;99.00;;;;;;10094326;28;20025;-67
2021/11/13 23:25:03;;;;;;;10.20;6.03;;;9.90;99.00;;;;;;10094780;28;20037;-66
2021/11/13 23:29:54;;;;;;;10.63;6.40;;;9.90;99.10;;;;;;10071976;28;20025;-66
2021/11/13 23:34:45;;;;;;;10.95;6.32;;;9.90;99.10;;;;;;10092691;28;20037;-66
2021/11/13 23:39:36;;;;;;;11.65;6.50;;;9.90;99.10;;;;;;10092788;28;20127;-66
2021/11/13 23:44:27;;;;;;;12.30;6.60;;;9.80;99.20;;;;;;10093728;28;20124;-69
2021/11/13 23:49:18;;;;;;;10.90;6.70;;;9.90;99.20;;;;;;10092699;28;20105;-66
2021/11/13 23:54:09;;;;;;;13.13;6.38;;;9.80;99.20;;;;;;10092106;28;20216;-66
2021/11/13 23:59:01;;;;;;;13.68;7.20;;;9.80;99.30;;;;;;10094004;28;20117;-68
